createdAt,value
2022-09-07T00:02:58.534Z,99783.80
2022-09-07T00:06:06.377Z,99781.83
2022-09-07T00:09:08.241Z,99781.34
2022-09-07T00:12:10.193Z,99776.77
2022-09-07T00:15:12.928Z,99778.77
2022-09-07T00:18:15.130Z,99778.46
2022-09-07T00:21:17.885Z,99780.88
2022-09-07T00:24:19.721Z,99777.85
2022-09-07T00:27:21.570Z,99780.07
2022-09-07T00:30:23.444Z,99781.52
2022-09-07T00:33:25.660Z,99775.62
2022-09-07T00:36:27.624Z,99774.77
2022-09-07T00:39:29.724Z,99768.24
2022-09-07T00:42:31.618Z,99766.73
2022-09-07T00:45:33.636Z,99766.83
2022-09-07T00:48:50.300Z,99769.39
2022-09-07T00:51:57.696Z,99772.27
2022-09-07T00:55:03.800Z,99767.45
2022-09-07T00:58:06.679Z,99769.45
2022-09-07T01:01:09.950Z,99776.08
2022-09-07T01:04:12.060Z,99774.83
2022-09-07T01:07:14.050Z,99770.68
2022-09-07T01:10:16.750Z,99771.11
2022-09-07T01:13:18.679Z,99771.52
2022-09-07T01:16:37.011Z,99769.17
2022-09-07T01:20:29.500Z,99762.02
2022-09-07T01:23:52.733Z,99754.85
2022-09-07T01:27:32.344Z,99756.72
2022-09-07T01:30:37.756Z,99755.81
2022-09-07T01:33:56.828Z,99756.53
2022-09-07T01:37:20.225Z,99750.48
2022-09-07T01:40:29.406Z,99750.87
2022-09-07T01:44:16.638Z,99749.73
2022-09-07T01:47:26.039Z,99747.16
2022-09-07T01:50:27.880Z,99745.16
2022-09-07T01:53:44.129Z,99745.39
2022-09-07T01:56:48.220Z,99745.98
2022-09-07T02:00:16.948Z,99743.05
2022-09-07T02:03:41.481Z,99738.30
2022-09-07T02:06:55.672Z,99736.73
2022-09-07T02:10:24.688Z,99730.56
2022-09-07T02:13:48.910Z,99728.77
2022-09-07T02:17:12.311Z,99720.58
2022-09-07T02:20:19.109Z,99722.77
2022-09-07T02:23:25.670Z,99720.23
2022-09-07T02:26:29.453Z,99716.13
2022-09-07T02:29:32.330Z,99717.10
2022-09-07T02:32:34.383Z,99716.38
2022-09-07T02:35:36.384Z,99714.59
2022-09-07T02:38:38.277Z,99711.09
2022-09-07T02:41:42.572Z,99710.85
2022-09-07T02:44:46.629Z,99707.25
2022-09-07T02:48:07.082Z,99710.02
2022-09-07T02:51:37.986Z,99712.07
2022-09-07T02:55:02.321Z,99715.07
2022-09-07T02:58:22.730Z,99720.30
2022-09-07T03:01:50.673Z,99716.32
2022-09-07T03:05:03.425Z,99711.31
2022-09-07T03:08:16.267Z,99715.94
2022-09-07T03:11:18.471Z,99716.67
2022-09-07T03:14:22.682Z,99715.27
2022-09-07T03:17:24.503Z,99716.84
2022-09-07T03:20:26.286Z,99719.38
2022-09-07T03:23:27.996Z,99714.96
2022-09-07T03:26:29.729Z,99712.51
2022-09-07T03:29:31.476Z,99711.37
2022-09-07T03:32:35.713Z,99708.70
2022-09-07T03:35:37.502Z,99711.80
2022-09-07T03:38:39.206Z,99710.21
2022-09-07T03:41:41.177Z,99714.80
2022-09-07T03:44:42.906Z,99722.44
2022-09-07T03:47:45.145Z,99723.30
2022-09-07T03:51:13.517Z,99724.05
2022-09-07T03:54:15.196Z,99725.48
2022-09-07T03:57:17.019Z,99721.34
2022-09-07T04:00:18.859Z,99716.59
2022-09-07T04:03:20.903Z,99720.54
2022-09-07T04:06:22.698Z,99728.31
2022-09-07T04:09:24.478Z,99733.13
2022-09-07T04:12:26.243Z,99731.65
2022-09-07T04:15:29.003Z,99736.48
2022-09-07T04:18:30.814Z,99739.21
2022-09-07T04:21:33.835Z,99739.38
2022-09-07T04:24:35.523Z,99740.98
2022-09-07T04:27:37.222Z,99742.44
2022-09-07T04:30:38.873Z,99745.02
2022-09-07T04:33:40.669Z,99744.41
2022-09-07T04:36:42.455Z,99745.03
2022-09-07T04:39:44.164Z,99751.11
2022-09-07T04:42:46.038Z,99749.20
2022-09-07T04:45:47.770Z,99749.80
2022-09-07T04:48:54.655Z,99744.70
2022-09-07T04:51:56.316Z,99745.14
2022-09-07T04:54:58.111Z,99743.49
2022-09-07T04:57:59.793Z,99747.27
2022-09-07T05:01:06.561Z,99745.45
2022-09-07T05:04:08.500Z,99743.13
2022-09-07T05:07:10.407Z,99735.39
2022-09-07T05:10:12.208Z,99736.08
2022-09-07T05:13:13.921Z,99736.80
2022-09-07T05:16:21.392Z,99737.34
2022-09-07T05:19:24.653Z,99730.39
2022-09-07T05:22:26.400Z,99732.34
2022-09-07T05:25:29.074Z,99724.80
2022-09-07T05:28:31.361Z,99724.94
2022-09-07T05:31:33.763Z,99727.58
2022-09-07T05:34:35.525Z,99725.67
2022-09-07T05:37:37.212Z,99728.59
2022-09-07T05:40:40.879Z,99726.11
2022-09-07T05:47:05.838Z,99726.28
2022-09-07T05:50:09.219Z,99724.85
2022-09-07T05:53:20.561Z,99729.85
2022-09-07T05:56:22.379Z,99735.56
2022-09-07T05:59:24.145Z,99732.58
2022-09-07T06:02:26.004Z,99739.30
2022-09-07T06:05:27.808Z,99737.99
2022-09-07T06:08:30.561Z,99737.34
2022-09-07T06:11:32.396Z,99737.78
2022-09-07T06:14:34.170Z,99738.36
2022-09-07T06:17:35.934Z,99730.75
2022-09-07T06:20:37.854Z,99732.55
2022-09-07T06:23:41.562Z,99739.46
2022-09-07T06:26:43.315Z,99733.03
2022-09-07T06:29:45.124Z,99732.08
2022-09-07T06:32:47.410Z,99726.57
2022-09-07T06:36:00.537Z,99729.05
2022-09-07T06:39:02.333Z,99723.79
2022-09-07T06:42:04.443Z,99718.89
2022-09-07T06:45:06.637Z,99722.23
2022-09-07T06:48:08.349Z,99721.92
2022-09-07T06:51:16.069Z,99723.38
2022-09-07T06:57:39.556Z,99721.80
2022-09-07T07:00:41.548Z,99716.98
2022-09-07T07:03:44.391Z,99718.95
2022-09-07T07:06:46.306Z,99724.92
2022-09-07T07:09:50.083Z,99722.13
2022-09-07T07:12:57.733Z,99722.74
2022-09-07T07:16:08.593Z,99719.88
2022-09-07T07:19:10.706Z,99715.91
2022-09-07T07:22:36.080Z,99715.17
2022-09-07T07:25:35.630Z,99719.42
2022-09-07T07:31:59.359Z,99719.01
2022-09-07T07:35:01.736Z,99715.69
2022-09-07T07:48:13.271Z,99713.40
2022-09-07T07:51:19.853Z,99710.21
2022-09-07T07:54:21.806Z,99700.94
2022-09-07T07:57:23.800Z,99702.76
2022-09-07T08:00:43.731Z,99698.73
2022-09-07T08:03:47.368Z,99694.70
2022-09-07T08:06:49.377Z,99690.02
2022-09-07T08:09:51.223Z,99693.09
2022-09-07T08:12:53.334Z,99697.85
2022-09-07T08:15:59.504Z,99689.69
2022-09-07T08:19:02.101Z,99690.58
2022-09-07T08:22:04.056Z,99686.59
2022-09-07T08:25:07.261Z,99686.59
2022-09-07T08:28:08.979Z,99681.98
2022-09-07T08:31:13.818Z,99677.88
2022-09-07T08:34:15.597Z,99681.95
2022-09-07T08:37:17.370Z,99682.98
2022-09-07T08:40:19.485Z,99679.98
2022-09-07T08:43:49.007Z,99679.89
2022-09-07T08:47:01.981Z,99679.17
2022-09-07T08:50:11.028Z,99675.80
2022-09-07T08:53:17.500Z,99678.23
2022-09-07T08:56:25.042Z,99673.82
2022-09-07T08:59:41.271Z,99663.41
2022-09-07T09:02:44.632Z,99663.23
2022-09-07T09:06:05.700Z,99656.73
2022-09-07T09:09:43.797Z,99647.45
2022-09-07T09:13:03.853Z,99648.02
2022-09-07T09:16:21.684Z,99646.08
2022-09-07T09:19:32.162Z,99646.88
2022-09-07T09:22:34.975Z,99643.84
2022-09-07T09:25:37.316Z,99642.31
2022-09-07T09:28:40.023Z,99640.32
2022-09-07T09:31:42.111Z,99633.86
2022-09-07T09:35:26.411Z,99633.27
2022-09-07T09:38:32.166Z,99631.86
2022-09-07T09:41:37.501Z,99633.77
2022-09-07T09:44:39.523Z,99629.48
2022-09-07T09:47:41.356Z,99629.15
2022-09-07T09:54:42.118Z,99619.13
2022-09-07T10:01:34.366Z,99612.45
2022-09-07T10:04:36.980Z,99614.93
2022-09-07T10:07:38.812Z,99609.70
2022-09-07T10:10:51.058Z,99609.96
2022-09-07T10:13:56.219Z,99603.98
2022-09-07T10:16:59.342Z,99603.27
2022-09-07T10:20:14.773Z,99602.34
2022-09-07T10:23:24.420Z,99600.10
2022-09-07T10:26:35.336Z,99602.23
2022-09-07T10:29:37.383Z,99598.91
2022-09-07T10:32:42.139Z,99597.80
2022-09-07T10:36:16.778Z,99595.20
2022-09-07T10:39:26.891Z,99590.73
2022-09-07T10:42:35.798Z,99591.65
2022-09-07T10:46:04.847Z,99588.58
2022-09-07T10:49:34.082Z,99587.87
2022-09-07T10:52:48.023Z,99584.30
2022-09-07T10:56:19.156Z,99578.83
2022-09-07T11:03:26.396Z,99576.78
2022-09-07T11:06:34.295Z,99577.84
2022-09-07T11:09:58.910Z,99575.48
2022-09-07T11:13:04.940Z,99567.94
2022-09-07T11:16:50.621Z,99569.02
2022-09-07T11:19:44.854Z,99574.89
2022-09-07T11:23:39.079Z,99571.02
2022-09-07T11:26:53.574Z,99566.55
2022-09-07T11:30:02.224Z,99559.58
2022-09-07T11:33:20.159Z,99555.12
2022-09-07T11:36:22.379Z,99556.08
2022-09-07T11:39:35.554Z,99557.70
2022-09-07T11:43:00.375Z,99555.91
2022-09-07T11:46:10.553Z,99547.52
2022-09-07T11:49:21.528Z,99547.20
2022-09-07T11:52:34.662Z,99551.83
2022-09-07T11:55:38.651Z,99548.98
2022-09-07T11:59:10.732Z,99544.23
2022-09-07T12:02:58.361Z,99540.98
2022-09-07T12:06:10.394Z,99532.27
2022-09-07T12:09:50.111Z,99529.71
2022-09-07T12:12:54.666Z,99530.86
2022-09-07T12:16:24.002Z,99529.95
2022-09-07T12:19:27.481Z,99525.84
2022-09-07T12:22:29.316Z,99522.48
2022-09-07T12:25:33.529Z,99527.63
2022-09-07T12:28:35.426Z,99523.74
2022-09-07T12:31:59.831Z,99516.58
2022-09-07T12:35:28.299Z,99511.59
2022-09-07T12:38:34.100Z,99508.27
2022-09-07T12:41:46.731Z,99503.11
2022-09-07T12:45:31.734Z,99499.05
2022-09-07T12:48:49.030Z,99496.56
2022-09-07T12:52:03.263Z,99497.63
2022-09-07T12:55:29.691Z,99496.55
2022-09-07T12:58:34.798Z,99491.45
2022-09-07T13:01:47.327Z,99490.39
2022-09-07T13:05:04.165Z,99489.47
2022-09-07T13:08:27.874Z,99488.69
2022-09-07T13:11:38.350Z,99493.98
2022-09-07T13:14:42.806Z,99490.05
2022-09-07T13:17:56.035Z,99483.64
2022-09-07T13:21:07.146Z,99478.91
2022-09-07T13:28:02.400Z,99469.73
2022-09-07T13:31:19.600Z,99471.56
2022-09-07T13:34:37.097Z,99468.16
2022-09-07T13:37:49.511Z,99466.30
2022-09-07T13:40:53.247Z,99461.72
2022-09-07T13:44:03.109Z,99462.02
2022-09-07T13:47:13.368Z,99455.70
2022-09-07T13:50:53.363Z,99459.17
2022-09-07T13:54:22.642Z,99455.11
2022-09-07T13:58:04.675Z,99452.27
2022-09-07T14:01:15.046Z,99444.33
2022-09-07T14:04:34.862Z,99442.53
2022-09-07T14:07:36.540Z,99442.63
2022-09-07T14:10:48.514Z,99443.41
2022-09-07T14:14:09.048Z,99438.13
2022-09-07T14:17:18.788Z,99438.06
2022-09-07T14:20:20.861Z,99443.52
2022-09-07T14:23:30.913Z,99444.75
2022-09-07T14:26:32.614Z,99438.95
2022-09-07T14:29:35.991Z,99439.77
2022-09-07T14:32:38.335Z,99438.00
2022-09-07T14:35:42.421Z,99435.98
2022-09-07T14:42:10.301Z,99428.00
2022-09-07T14:45:24.257Z,99431.38
2022-09-07T14:48:32.441Z,99431.89
2022-09-07T14:51:37.011Z,99426.05
2022-09-07T14:54:39.887Z,99428.30
2022-09-07T14:57:41.553Z,99428.19
2022-09-07T15:00:45.973Z,99424.15
2022-09-07T15:03:56.834Z,99420.53
2022-09-07T15:07:02.097Z,99419.63
2022-09-07T15:10:23.503Z,99422.04
2022-09-07T15:13:32.417Z,99421.02
2022-09-07T15:16:43.243Z,99419.70
2022-09-07T15:19:45.832Z,99422.43
2022-09-07T15:22:47.633Z,99420.23
2022-09-07T15:25:53.465Z,99419.88
2022-09-07T15:29:11.871Z,99411.98
2022-09-07T15:32:16.710Z,99415.66
2022-09-07T15:35:19.845Z,99413.96
2022-09-07T15:41:44.380Z,99413.63
2022-09-07T15:44:46.192Z,99418.73
2022-09-07T15:47:52.132Z,99417.61
2022-09-07T15:51:03.559Z,99412.70
2022-09-07T15:54:11.437Z,99414.98
2022-09-07T16:00:39.239Z,99408.91
2022-09-07T16:03:42.446Z,99404.25
2022-09-07T16:06:44.583Z,99396.94
2022-09-07T16:09:46.946Z,99389.13
2022-09-07T16:13:10.419Z,99389.16
2022-09-07T16:16:11.065Z,99389.05
2022-09-07T16:19:14.447Z,99386.41
2022-09-07T16:23:13.205Z,99388.81
2022-09-07T16:25:37.798Z,99389.50
2022-09-07T16:28:41.705Z,99382.87
2022-09-07T16:35:05.799Z,99375.95
2022-09-07T16:41:33.162Z,99376.27
2022-09-07T16:44:38.382Z,99373.09
2022-09-07T16:47:40.247Z,99369.42
2022-09-07T16:50:56.591Z,99371.17
2022-09-07T16:54:02.756Z,99377.34
2022-09-07T16:57:04.745Z,99379.22
2022-09-07T17:00:07.169Z,99383.52
2022-09-07T17:03:09.605Z,99381.02
2022-09-07T17:06:14.887Z,99380.48
2022-09-07T17:09:17.085Z,99382.63
2022-09-07T17:12:20.753Z,99386.50
2022-09-07T17:15:22.430Z,99386.73
2022-09-07T17:21:55.478Z,99395.38
2022-09-07T17:24:59.321Z,99397.36
2022-09-07T17:28:03.932Z,99401.61
2022-09-07T17:34:43.850Z,99408.79
2022-09-07T17:37:45.519Z,99410.48
2022-09-07T17:40:49.564Z,99419.27
2022-09-07T17:43:52.691Z,99426.75
2022-09-07T17:46:57.261Z,99428.89
2022-09-07T17:49:58.932Z,99425.41
2022-09-07T17:53:00.628Z,99428.74
2022-09-07T17:56:05.729Z,99428.40
2022-09-07T18:02:33.019Z,99426.39
2022-09-07T18:05:34.770Z,99429.21
2022-09-07T18:08:37.473Z,99427.73
2022-09-07T18:11:48.009Z,99427.14
2022-09-07T18:14:50.575Z,99423.66
2022-09-07T18:17:54.564Z,99424.10
2022-09-07T18:20:56.516Z,99427.19
2022-09-07T18:24:03.173Z,99430.07
2022-09-07T18:27:05.329Z,99428.71
2022-09-07T18:30:07.717Z,99432.67
2022-09-07T18:33:12.863Z,99435.14
2022-09-07T18:36:16.880Z,99433.02
2022-09-07T18:39:18.831Z,99431.98
2022-09-07T18:42:22.171Z,99429.96
2022-09-07T18:45:27.514Z,99436.27
2022-09-07T18:48:29.795Z,99432.67
2022-09-07T18:52:51.622Z,99428.70
2022-09-07T18:54:54.418Z,99431.86
2022-09-07T18:57:56.139Z,99432.27
2022-09-07T19:00:58.207Z,99433.66
2022-09-07T19:04:00.030Z,99425.70
2022-09-07T19:07:03.791Z,99420.95
2022-09-07T19:10:08.237Z,99424.36
2022-09-07T19:13:09.916Z,99423.70
2022-09-07T19:16:13.797Z,99424.31
2022-09-07T19:19:15.458Z,99425.95
2022-09-07T19:22:17.546Z,99420.93
2022-09-07T19:25:19.430Z,99420.95
2022-09-07T19:28:21.731Z,99422.72
2022-09-07T19:31:25.264Z,99421.52
2022-09-07T19:34:26.974Z,99420.68
2022-09-07T19:37:31.953Z,99418.00
2022-09-07T19:40:33.603Z,99415.94
2022-09-07T19:43:35.361Z,99417.88
2022-09-07T19:46:37.065Z,99413.70
2022-09-07T19:49:38.803Z,99408.05
2022-09-07T19:52:40.662Z,99407.67
2022-09-07T19:55:42.917Z,99413.50
2022-09-07T19:58:49.582Z,99413.23
2022-09-07T20:01:53.488Z,99413.96
2022-09-07T20:04:55.640Z,99417.29
2022-09-07T20:07:57.894Z,99420.23
2022-09-07T20:11:02.215Z,99419.02
2022-09-07T20:14:04.132Z,99424.63
2022-09-07T20:17:05.828Z,99421.45
2022-09-07T20:20:08.065Z,99416.10
2022-09-07T20:23:10.270Z,99419.20
2022-09-07T20:26:14.098Z,99426.34
2022-09-07T20:29:27.265Z,99421.25
2022-09-07T20:32:31.017Z,99421.77
2022-09-07T20:38:55.135Z,99424.91
2022-09-07T20:41:57.078Z,99421.34
2022-09-07T20:45:00.237Z,99414.11
2022-09-07T20:48:02.185Z,99409.50
2022-09-07T20:51:06.614Z,99409.47
2022-09-07T20:54:08.481Z,99411.54
2022-09-07T20:57:10.404Z,99407.86
2022-09-07T21:00:12.659Z,99406.72
2022-09-07T21:03:14.829Z,99404.58
2022-09-07T21:06:17.344Z,99403.98
2022-09-07T21:09:19.922Z,99404.45
2022-09-07T21:12:21.606Z,99400.58
2022-09-07T21:15:23.264Z,99398.75
2022-09-07T21:18:25.421Z,99398.16
2022-09-07T21:21:28.699Z,99396.66
2022-09-07T21:24:31.404Z,99402.49
2022-09-07T21:27:38.591Z,99407.57
2022-09-07T21:30:40.711Z,99406.16
2022-09-07T21:33:42.431Z,99400.21
2022-09-07T21:36:44.199Z,99401.15
2022-09-07T21:39:45.912Z,99403.91
2022-09-07T21:42:47.605Z,99404.98
2022-09-07T21:45:49.732Z,99408.73
2022-09-07T21:48:51.478Z,99409.19
2022-09-07T21:51:53.214Z,99412.90
2022-09-07T21:54:55.221Z,99406.25
2022-09-07T21:57:57.114Z,99403.96
2022-09-07T22:01:00.794Z,99403.02
2022-09-07T22:04:04.414Z,99402.01
2022-09-07T22:07:06.141Z,99403.85
2022-09-07T22:10:09.584Z,99406.80
2022-09-07T22:13:11.871Z,99404.16
2022-09-07T22:16:14.360Z,99400.63
2022-09-07T22:19:16.092Z,99402.93
2022-09-07T22:22:17.799Z,99396.60
2022-09-07T22:25:19.514Z,99389.80
2022-09-07T22:28:21.181Z,99383.67
2022-09-07T22:31:25.635Z,99379.77
2022-09-07T22:34:29.174Z,99373.92
2022-09-07T22:37:30.897Z,99373.00
2022-09-07T22:40:32.707Z,99376.31
2022-09-07T22:43:34.616Z,99381.09
2022-09-07T22:46:38.498Z,99377.20
2022-09-07T22:49:40.277Z,99378.04
2022-09-07T22:52:41.905Z,99379.21
2022-09-07T22:55:43.688Z,99384.02
2022-09-07T22:58:46.884Z,99387.98
2022-09-07T23:01:49.562Z,99388.70
2022-09-07T23:04:51.245Z,99387.96
2022-09-07T23:07:53.108Z,99381.83
2022-09-07T23:10:54.920Z,99384.16
2022-09-07T23:13:58.965Z,99380.71
2022-09-07T23:17:00.974Z,99374.60
2022-09-07T23:20:03.147Z,99370.79
2022-09-07T23:23:04.818Z,99362.39
2022-09-07T23:26:06.852Z,99362.29
2022-09-07T23:29:11.213Z,99357.67
2022-09-07T23:32:12.842Z,99350.90
2022-09-07T23:35:16.725Z,99350.59
2022-09-07T23:38:18.517Z,99351.76
2022-09-07T23:41:20.201Z,99351.45
2022-09-07T23:44:22.114Z,99350.42
2022-09-07T23:47:23.895Z,99349.35
2022-09-07T23:50:25.586Z,99349.55
2022-09-07T23:53:27.419Z,99352.96
2022-09-07T23:56:31.181Z,99351.74
2022-09-07T23:59:33.976Z,99347.05
